createdAt,value
2018-05-29T00:02:10.343Z,16.55
2018-05-29T00:04:37.866Z,15.68
2018-05-29T00:07:05.429Z,15.73
2018-05-29T00:09:32.988Z,15.98
2018-05-29T00:12:00.507Z,17.23
2018-05-29T00:14:28.039Z,16.35
2018-05-29T00:16:55.556Z,16.02
2018-05-29T00:19:23.126Z,15.30
2018-05-29T00:21:50.648Z,17.27
2018-05-29T00:24:18.162Z,16.67
2018-05-29T00:26:45.698Z,16.87
2018-05-29T00:29:13.264Z,20.58
2018-05-29T00:31:40.783Z,16.83
2018-05-29T00:34:08.303Z,17.27
2018-05-29T00:36:35.828Z,16.70
2018-05-29T00:39:03.399Z,18.15
2018-05-29T00:41:31.073Z,17.33
2018-05-29T00:43:58.610Z,16.42
2018-05-29T00:46:26.211Z,19.60
2018-05-29T00:48:53.734Z,16.05
2018-05-29T00:51:21.255Z,16.05
2018-05-29T00:53:48.811Z,16.75
2018-05-29T00:56:16.327Z,16.55
2018-05-29T00:58:43.837Z,16.98
2018-05-29T01:01:11.359Z,17.67
2018-05-29T01:03:38.882Z,17.73
2018-05-29T01:06:06.405Z,17.15
2018-05-29T01:08:33.980Z,17.02
2018-05-29T01:11:01.532Z,16.20
2018-05-29T01:13:29.051Z,17.62
2018-05-29T01:15:56.565Z,19.20
2018-05-29T01:18:24.079Z,18.58
2018-05-29T01:20:51.637Z,20.30
2018-05-29T01:23:19.233Z,19.65
2018-05-29T01:25:46.758Z,20.90
2018-05-29T01:28:14.283Z,19.25
2018-05-29T01:30:41.802Z,18.90
2018-05-29T01:33:10.131Z,20.30
2018-05-29T01:35:37.651Z,18.87
2018-05-29T01:38:05.935Z,19.40
2018-05-29T01:40:33.495Z,20.08
2018-05-29T01:43:01.015Z,19.30
2018-05-29T01:45:28.533Z,20.40
2018-05-29T01:47:56.050Z,21.65
2018-05-29T01:50:23.575Z,20.77
2018-05-29T01:52:51.138Z,19.52
2018-05-29T01:55:18.651Z,21.02
2018-05-29T01:57:46.175Z,21.20
2018-05-29T02:00:13.703Z,21.05
2018-05-29T02:02:41.219Z,21.12
2018-05-29T02:05:09.504Z,22.13
2018-05-29T02:07:37.030Z,22.15
2018-05-29T02:10:04.556Z,24.05
2018-05-29T02:12:32.067Z,22.48
2018-05-29T02:15:00.347Z,24.30
2018-05-29T02:17:27.864Z,23.48
2018-05-29T02:19:55.375Z,24.23
2018-05-29T02:22:22.887Z,24.40
2018-05-29T02:24:50.401Z,22.90
2018-05-29T02:27:17.926Z,22.25
2018-05-29T02:29:45.432Z,21.23
2018-05-29T02:32:12.943Z,22.60
2018-05-29T02:34:40.474Z,20.73
2018-05-29T02:37:07.986Z,22.45
2018-05-29T02:39:36.511Z,21.40
2018-05-29T02:42:04.025Z,23.15
2018-05-29T02:44:31.539Z,24.67
2018-05-29T02:46:59.059Z,23.02
2018-05-29T02:49:27.345Z,24.93
2018-05-29T02:51:54.867Z,23.23
2018-05-29T02:54:22.391Z,23.30
2018-05-29T02:56:49.911Z,25.37
2018-05-29T02:59:18.182Z,23.25
2018-05-29T03:01:45.707Z,24.73
2018-05-29T03:04:13.223Z,24.02
2018-05-29T03:06:40.734Z,24.95
2018-05-29T03:09:08.267Z,27.20
2018-05-29T03:11:35.775Z,25.30
2018-05-29T03:14:03.294Z,24.37
2018-05-29T03:16:31.578Z,24.40
2018-05-29T03:18:59.379Z,26.23
2018-05-29T03:21:26.899Z,25.62
2018-05-29T03:23:54.415Z,24.33
2018-05-29T03:26:21.927Z,25.77
2018-05-29T03:28:49.439Z,23.70
2018-05-29T03:31:16.957Z,26.37
2018-05-29T03:33:44.487Z,26.20
2018-05-29T03:36:11.999Z,26.27
2018-05-29T03:38:39.515Z,27.05
2018-05-29T03:41:07.035Z,26.02
2018-05-29T03:43:34.571Z,26.87
2018-05-29T03:46:02.339Z,25.80
2018-05-29T03:48:29.854Z,27.23
2018-05-29T03:50:57.367Z,26.55
2018-05-29T03:53:24.886Z,25.35
2018-05-29T03:55:52.402Z,27.55
2018-05-29T03:58:19.927Z,29.30
2018-05-29T04:00:47.451Z,27.37
2018-05-29T04:03:15.851Z,27.30
2018-05-29T04:05:43.378Z,29.23
2018-05-29T04:08:10.882Z,29.12
2018-05-29T04:10:38.400Z,27.35
2018-05-29T04:13:05.926Z,29.63
2018-05-29T04:15:33.445Z,29.27
2018-05-29T04:18:00.960Z,29.63
2018-05-29T04:20:28.483Z,28.80
2018-05-29T04:22:55.998Z,28.17
2018-05-29T04:25:23.511Z,29.00
2018-05-29T04:27:51.027Z,27.58
2018-05-29T04:30:18.541Z,27.20
2018-05-29T04:32:46.058Z,29.83
2018-05-29T04:35:13.591Z,28.10
2018-05-29T04:37:41.116Z,29.25
2018-05-29T04:40:08.641Z,30.60
2018-05-29T04:42:36.174Z,27.45
2018-05-29T04:45:03.694Z,30.25
2018-05-29T04:47:32.623Z,29.00
2018-05-29T04:50:00.135Z,28.77
2018-05-29T04:52:28.111Z,30.12
2018-05-29T04:54:55.638Z,28.83
2018-05-29T04:57:23.178Z,32.15
2018-05-29T04:59:50.691Z,28.48
2018-05-29T05:02:18.206Z,29.58
2018-05-29T05:04:45.718Z,28.05
2018-05-29T05:07:13.244Z,29.65
2018-05-29T05:09:40.763Z,31.37
2018-05-29T05:12:08.284Z,29.02
2018-05-29T05:14:35.807Z,28.27
2018-05-29T05:17:03.338Z,29.65
2018-05-29T05:19:30.855Z,29.75
2018-05-29T05:21:58.374Z,29.45
2018-05-29T05:24:25.892Z,30.00
2018-05-29T05:26:53.660Z,29.55
2018-05-29T05:29:21.171Z,30.05
2018-05-29T05:31:48.695Z,27.48
2018-05-29T05:34:16.203Z,29.87
2018-05-29T05:36:43.719Z,28.75
2018-05-29T05:39:11.242Z,28.00
2018-05-29T05:41:38.759Z,26.30
2018-05-29T05:44:06.279Z,27.02
2018-05-29T05:46:34.574Z,25.65
2018-05-29T05:49:02.115Z,27.52
2018-05-29T05:51:29.642Z,26.83
2018-05-29T05:53:57.158Z,26.00
2018-05-29T05:56:24.681Z,26.37
2018-05-29T05:58:52.236Z,24.48
2018-05-29T06:01:19.766Z,24.20
2018-05-29T06:03:47.282Z,22.62
2018-05-29T06:06:14.803Z,21.62
2018-05-29T06:08:42.319Z,20.83
2018-05-29T06:11:09.834Z,28.40
2018-05-29T06:13:37.419Z,20.20
2018-05-29T06:16:05.723Z,19.35
2018-05-29T06:18:33.239Z,17.67
2018-05-29T06:21:00.765Z,20.10
2018-05-29T06:23:28.300Z,20.85
2018-05-29T06:25:55.814Z,19.75
2018-05-29T06:28:23.706Z,19.17
2018-05-29T06:30:51.987Z,17.90
2018-05-29T06:33:19.513Z,16.92
2018-05-29T06:35:47.030Z,16.67
2018-05-29T06:38:14.551Z,15.07
2018-05-29T06:40:42.117Z,13.95
2018-05-29T06:43:09.630Z,13.85
2018-05-29T06:45:37.206Z,14.48
2018-05-29T06:48:04.763Z,13.15
2018-05-29T06:50:32.339Z,13.85
2018-05-29T06:52:59.860Z,13.05
2018-05-29T06:55:27.403Z,13.48
2018-05-29T06:57:54.937Z,12.18
2018-05-29T07:00:22.460Z,10.73
2018-05-29T07:02:49.979Z,12.98
2018-05-29T07:05:17.501Z,12.57
2018-05-29T07:07:45.019Z,11.80
2018-05-29T07:10:13.109Z,11.50
2018-05-29T07:12:40.735Z,10.80
2018-05-29T07:15:08.259Z,11.73
2018-05-29T07:17:35.788Z,11.65
2018-05-29T07:20:03.323Z,29.90
2018-05-29T07:22:30.843Z,13.75
2018-05-29T07:24:58.373Z,11.32
2018-05-29T07:27:26.663Z,13.02
2018-05-29T07:29:54.202Z,12.90
2018-05-29T07:32:21.732Z,12.37
2018-05-29T07:34:49.281Z,17.10
2018-05-29T07:37:16.798Z,13.80
2018-05-29T07:39:44.349Z,13.20
2018-05-29T07:42:11.903Z,14.27
2018-05-29T07:44:39.439Z,12.07
2018-05-29T07:47:06.964Z,12.18
2018-05-29T07:49:34.481Z,12.75
2018-05-29T07:52:02.436Z,11.85
2018-05-29T07:54:29.960Z,10.18
2018-05-29T07:56:57.485Z,11.02
2018-05-29T07:59:25.007Z,10.35
2018-05-29T08:01:52.541Z,9.23
2018-05-29T08:04:20.057Z,9.88
2018-05-29T08:06:47.587Z,9.68
2018-05-29T08:09:15.104Z,8.95
2018-05-29T08:11:42.643Z,9.40
2018-05-29T08:14:10.153Z,9.57
2018-05-29T08:16:37.687Z,9.95
2018-05-29T08:19:05.262Z,8.55
2018-05-29T08:21:32.808Z,9.90
2018-05-29T08:24:00.331Z,12.93
2018-05-29T08:26:27.875Z,11.15
2018-05-29T08:28:56.256Z,11.07
2018-05-29T08:31:23.790Z,11.38
2018-05-29T08:33:51.315Z,12.65
2018-05-29T08:36:18.835Z,13.45
2018-05-29T08:38:46.347Z,20.75
2018-05-29T08:41:13.875Z,13.35
2018-05-29T08:43:41.399Z,12.35
2018-05-29T08:46:08.954Z,12.35
2018-05-29T08:48:37.236Z,10.02
2018-05-29T08:51:04.759Z,10.70
2018-05-29T08:53:32.270Z,9.90
2018-05-29T08:55:59.800Z,10.23
2018-05-29T08:58:28.083Z,11.18
2018-05-29T09:00:55.600Z,10.93
2018-05-29T09:03:23.819Z,10.48
2018-05-29T09:05:51.380Z,9.95
2018-05-29T09:08:18.959Z,10.52
2018-05-29T09:10:47.082Z,9.68
2018-05-29T09:13:15.084Z,8.70
2018-05-29T09:15:42.703Z,8.70
2018-05-29T09:18:11.602Z,10.13
2018-05-29T09:20:39.771Z,7.93
2018-05-29T09:23:07.331Z,8.57
2018-05-29T09:25:35.275Z,7.82
2018-05-29T09:28:02.875Z,6.87
2018-05-29T09:30:30.393Z,8.15
2018-05-29T09:32:59.015Z,7.75
2018-05-29T09:35:28.224Z,7.85
2018-05-29T09:37:56.652Z,9.07
2018-05-29T09:40:26.382Z,7.47
2018-05-29T09:42:55.727Z,7.43
2018-05-29T09:45:25.139Z,6.57
2018-05-29T09:47:54.144Z,10.13
2018-05-29T09:50:22.023Z,8.05
2018-05-29T09:52:50.807Z,7.93
2018-05-29T09:55:19.239Z,8.50
2018-05-29T09:57:48.022Z,8.30
2018-05-29T10:00:23.159Z,8.57
2018-05-29T10:02:51.578Z,9.50
2018-05-29T10:05:19.937Z,9.80
2018-05-29T10:07:47.551Z,8.98
2018-05-29T10:10:18.566Z,8.38
2018-05-29T10:12:47.912Z,10.02
2018-05-29T10:15:15.783Z,9.80
2018-05-29T10:17:43.676Z,9.43
2018-05-29T10:20:11.545Z,13.88
2018-05-29T10:22:39.111Z,10.32
2018-05-29T10:25:07.682Z,9.95
2018-05-29T10:27:35.339Z,10.43
2018-05-29T10:30:03.504Z,10.30
2018-05-29T10:32:32.115Z,10.57
2018-05-29T10:35:00.491Z,11.12
2018-05-29T10:37:28.291Z,10.55
2018-05-29T10:39:56.267Z,10.18
2018-05-29T10:42:25.963Z,10.90
2018-05-29T10:44:54.500Z,15.43
2018-05-29T10:47:23.200Z,11.90
2018-05-29T10:49:52.702Z,10.85
2018-05-29T10:52:21.241Z,10.50
2018-05-29T10:54:49.156Z,10.05
2018-05-29T10:57:18.735Z,10.55
2018-05-29T10:59:47.919Z,10.15
2018-05-29T11:02:16.135Z,9.90
2018-05-29T11:04:44.682Z,10.93
2018-05-29T11:07:14.627Z,9.82
2018-05-29T11:09:42.195Z,12.00
2018-05-29T11:12:09.775Z,9.52
2018-05-29T11:14:38.139Z,11.82
2018-05-29T11:17:05.945Z,9.02
2018-05-29T11:19:34.120Z,10.15
2018-05-29T11:22:03.035Z,13.05
2018-05-29T11:24:31.802Z,10.55
2018-05-29T11:26:59.385Z,10.68
2018-05-29T11:29:27.059Z,9.02
2018-05-29T11:31:54.890Z,10.90
2018-05-29T11:34:22.530Z,12.02
2018-05-29T11:36:50.894Z,10.35
2018-05-29T11:39:18.539Z,9.82
2018-05-29T11:41:46.935Z,10.00
2018-05-29T11:44:15.643Z,10.13
2018-05-29T11:46:43.191Z,14.43
2018-05-29T11:49:10.991Z,9.68
2018-05-29T11:51:40.967Z,9.95
2018-05-29T11:54:10.068Z,10.45
2018-05-29T11:56:38.834Z,11.12
2018-05-29T11:59:07.926Z,10.27
2018-05-29T12:01:35.832Z,14.60
2018-05-29T12:04:04.860Z,9.20
2018-05-29T12:06:33.534Z,12.02
2018-05-29T12:09:02.899Z,11.68
2018-05-29T12:11:30.455Z,10.35
2018-05-29T12:13:58.483Z,10.77
2018-05-29T12:16:26.898Z,10.45
2018-05-29T12:18:55.592Z,13.23
2018-05-29T12:21:23.112Z,16.08
2018-05-29T12:23:51.652Z,12.45
2018-05-29T12:26:19.887Z,11.30
2018-05-29T12:28:48.431Z,11.25
2018-05-29T12:31:16.719Z,18.80
2018-05-29T12:33:44.238Z,16.33
2018-05-29T12:36:11.763Z,12.10
2018-05-29T12:38:39.283Z,9.55
2018-05-29T12:41:06.811Z,10.93
2018-05-29T12:43:34.331Z,13.90
2018-05-29T12:46:01.882Z,11.10
2018-05-29T12:48:29.403Z,11.27
2018-05-29T12:50:56.938Z,11.00
2018-05-29T12:53:24.445Z,10.50
2018-05-29T12:55:51.984Z,12.18
2018-05-29T12:58:19.506Z,10.68
2018-05-29T13:00:47.043Z,14.45
2018-05-29T13:03:14.568Z,11.68
2018-05-29T13:05:42.091Z,11.32
2018-05-29T13:08:09.621Z,10.85
2018-05-29T13:10:37.139Z,9.55
2018-05-29T13:13:04.926Z,10.48
2018-05-29T13:15:32.451Z,14.50
2018-05-29T13:17:59.983Z,11.73
2018-05-29T13:20:28.378Z,11.35
2018-05-29T13:22:55.901Z,17.62
2018-05-29T13:25:23.435Z,11.27
2018-05-29T13:27:50.959Z,16.08
2018-05-29T13:30:18.489Z,11.35
2018-05-29T13:32:46.004Z,13.52
2018-05-29T13:35:13.535Z,17.90
2018-05-29T13:37:41.050Z,12.13
2018-05-29T13:40:08.570Z,12.37
2018-05-29T13:42:36.084Z,12.63
2018-05-29T13:45:03.602Z,12.35
2018-05-29T13:47:31.127Z,12.30
2018-05-29T13:49:58.656Z,12.70
2018-05-29T13:52:26.188Z,12.37
2018-05-29T13:54:53.706Z,12.50
2018-05-29T13:57:21.226Z,12.30
2018-05-29T13:59:48.743Z,11.80
2018-05-29T14:02:16.266Z,13.80
2018-05-29T14:04:43.783Z,13.35
2018-05-29T14:07:11.315Z,12.90
2018-05-29T14:09:38.839Z,13.80
2018-05-29T14:12:06.407Z,14.27
2018-05-29T14:14:33.957Z,11.77
2018-05-29T14:17:01.503Z,11.93
2018-05-29T14:19:29.031Z,13.38
2018-05-29T14:21:56.572Z,13.38
2018-05-29T14:24:24.088Z,16.48
2018-05-29T14:26:51.626Z,12.55
2018-05-29T14:29:19.143Z,12.05
2018-05-29T14:31:46.683Z,17.08
2018-05-29T14:34:14.194Z,13.10
2018-05-29T14:36:41.723Z,8.75
2018-05-29T14:39:10.007Z,24.12
2018-05-29T14:41:38.019Z,12.00
2018-05-29T14:44:05.621Z,9.95
2018-05-29T14:46:33.443Z,9.93
2018-05-29T14:49:00.956Z,10.40
2018-05-29T14:51:28.479Z,10.00
2018-05-29T14:53:55.994Z,10.95
2018-05-29T14:56:23.515Z,10.75
2018-05-29T14:58:51.403Z,12.48
2018-05-29T15:01:19.683Z,9.60
2018-05-29T15:03:47.198Z,13.00
2018-05-29T15:06:14.710Z,9.75
2018-05-29T15:08:42.227Z,12.40
2018-05-29T15:11:09.738Z,10.35
2018-05-29T15:13:37.266Z,12.02
2018-05-29T15:16:04.791Z,10.23
2018-05-29T15:18:32.327Z,14.95
2018-05-29T15:20:59.846Z,9.05
2018-05-29T15:23:27.363Z,16.05
2018-05-29T15:25:54.882Z,15.95
2018-05-29T15:28:22.390Z,15.43
2018-05-29T15:30:49.903Z,10.90
2018-05-29T15:33:18.242Z,19.42
2018-05-29T15:35:45.724Z,15.70
2018-05-29T15:38:13.233Z,13.45
2018-05-29T15:40:40.814Z,19.05
2018-05-29T15:43:08.320Z,19.58
2018-05-29T15:45:35.843Z,11.38
2018-05-29T15:48:04.155Z,14.00
2018-05-29T15:50:31.683Z,12.32
2018-05-29T15:52:59.219Z,16.83
2018-05-29T15:55:26.743Z,16.42
2018-05-29T15:57:54.285Z,12.02
2018-05-29T16:00:21.802Z,14.57
2018-05-29T16:02:49.338Z,13.75
2018-05-29T16:05:16.867Z,16.48
2018-05-29T16:07:44.398Z,11.43
2018-05-29T16:10:12.797Z,12.73
2018-05-29T16:12:40.335Z,12.85
2018-05-29T16:15:07.850Z,10.70
2018-05-29T16:17:36.433Z,13.90
2018-05-29T16:20:03.954Z,11.43
2018-05-29T16:22:31.472Z,12.23
2018-05-29T16:24:58.997Z,11.32
2018-05-29T16:27:26.531Z,12.40
2018-05-29T16:29:54.042Z,12.73
2018-05-29T16:32:21.567Z,11.38
2018-05-29T16:34:49.088Z,10.80
2018-05-29T16:37:16.604Z,15.32
2018-05-29T16:39:44.128Z,10.77
2018-05-29T16:42:11.644Z,9.90
2018-05-29T16:44:39.150Z,10.07
2018-05-29T16:47:06.682Z,10.52
2018-05-29T16:49:34.203Z,14.57
2018-05-29T16:52:02.500Z,11.65
2018-05-29T16:54:30.015Z,11.98
2018-05-29T16:56:57.527Z,9.60
2018-05-29T16:59:25.032Z,8.73
2018-05-29T17:01:52.554Z,10.43
2018-05-29T17:04:20.099Z,10.35
2018-05-29T17:06:47.621Z,10.25
2018-05-29T17:09:15.126Z,7.87
2018-05-29T17:11:42.641Z,8.30
2018-05-29T17:14:10.156Z,9.85
2018-05-29T17:16:37.663Z,9.85
2018-05-29T17:19:05.180Z,7.30
2018-05-29T17:21:32.690Z,8.93
2018-05-29T17:24:00.203Z,17.83
2018-05-29T17:26:27.716Z,12.40
2018-05-29T17:28:55.240Z,10.18
2018-05-29T17:31:23.514Z,11.93
2018-05-29T17:33:51.043Z,10.90
2018-05-29T17:36:18.561Z,10.57
2018-05-29T17:38:46.067Z,12.30
2018-05-29T17:41:13.919Z,10.52
2018-05-29T17:43:41.463Z,10.77
2018-05-29T17:46:08.978Z,9.32
2018-05-29T17:48:36.619Z,10.02
2018-05-29T17:51:04.154Z,12.82
2018-05-29T17:53:31.667Z,11.50
2018-05-29T17:55:59.187Z,9.18
2018-05-29T17:58:26.702Z,7.97
2018-05-29T18:00:54.208Z,8.30
2018-05-29T18:03:21.722Z,9.10
2018-05-29T18:05:49.246Z,9.73
2018-05-29T18:08:16.805Z,10.05
2018-05-29T18:10:44.341Z,13.43
2018-05-29T18:13:11.871Z,13.70
2018-05-29T18:15:40.168Z,10.80
2018-05-29T18:18:07.706Z,10.43
2018-05-29T18:20:35.249Z,10.85
2018-05-29T18:23:03.572Z,11.70
2018-05-29T18:25:31.095Z,10.98
2018-05-29T18:27:58.615Z,13.10
2018-05-29T18:30:26.127Z,13.82
2018-05-29T18:32:53.651Z,13.43
2018-05-29T18:35:21.176Z,14.70
2018-05-29T18:37:50.282Z,17.83
2018-05-29T18:40:17.868Z,16.90
2018-05-29T18:42:45.493Z,16.87
2018-05-29T18:45:13.916Z,15.55
2018-05-29T18:47:41.466Z,16.25
2018-05-29T18:50:09.041Z,14.75
2018-05-29T18:52:36.681Z,20.48
2018-05-29T18:55:04.223Z,19.37
2018-05-29T18:57:31.825Z,16.15
2018-05-29T18:59:59.598Z,14.77
2018-05-29T19:02:27.128Z,12.88
2018-05-29T19:04:54.742Z,9.70
2018-05-29T19:07:22.281Z,16.25
2018-05-29T19:09:50.852Z,11.55
2018-05-29T19:12:18.463Z,12.15
2018-05-29T19:14:45.979Z,9.70
2018-05-29T19:17:13.530Z,16.23
2018-05-29T19:19:41.119Z,9.60
2018-05-29T19:22:08.646Z,11.25
2018-05-29T19:24:36.186Z,10.25
2018-05-29T19:27:03.785Z,11.43
2018-05-29T19:29:31.342Z,9.63
2018-05-29T19:31:58.863Z,11.50
2018-05-29T19:34:26.409Z,10.70
2018-05-29T19:36:53.997Z,11.25
2018-05-29T19:39:21.563Z,9.70
2018-05-29T19:41:49.154Z,10.13
2018-05-29T19:44:16.715Z,10.48
2018-05-29T19:46:44.251Z,10.10
2018-05-29T19:49:11.755Z,10.40
2018-05-29T19:51:39.396Z,10.60
2018-05-29T19:54:07.123Z,10.45
2018-05-29T19:56:34.857Z,10.77
2018-05-29T19:59:03.218Z,10.57
2018-05-29T20:01:30.883Z,10.45
2018-05-29T20:03:58.405Z,10.27
2018-05-29T20:06:26.746Z,10.65
2018-05-29T20:08:55.019Z,11.73
2018-05-29T20:11:23.227Z,11.23
2018-05-29T20:13:50.768Z,10.55
2018-05-29T20:16:18.359Z,10.75
2018-05-29T20:18:45.920Z,10.30
2018-05-29T20:21:13.560Z,9.88
2018-05-29T20:23:41.252Z,11.75
2018-05-29T20:26:08.835Z,11.73
2018-05-29T20:28:36.341Z,13.02
2018-05-29T20:31:04.220Z,12.40
2018-05-29T20:33:31.743Z,11.15
2018-05-29T20:35:59.617Z,11.98
2018-05-29T20:38:27.151Z,12.20
2018-05-29T20:40:54.672Z,13.57
2018-05-29T20:43:22.427Z,12.98
2018-05-29T20:45:49.969Z,12.05
2018-05-29T20:48:17.552Z,12.13
2018-05-29T20:50:45.247Z,13.35
2018-05-29T20:53:12.988Z,12.93
2018-05-29T20:55:40.553Z,12.77
2018-05-29T20:58:08.097Z,12.18
2018-05-29T21:00:35.677Z,13.15
2018-05-29T21:03:03.185Z,12.73
2018-05-29T21:05:31.018Z,11.98
2018-05-29T21:07:58.599Z,11.93
2018-05-29T21:10:26.135Z,13.90
2018-05-29T21:12:54.039Z,12.30
2018-05-29T21:15:21.551Z,12.70
2018-05-29T21:17:49.405Z,15.02
2018-05-29T21:20:16.988Z,10.50
2018-05-29T21:22:44.490Z,10.75
2018-05-29T21:25:12.166Z,10.52
2018-05-29T21:27:39.728Z,11.57
2018-05-29T21:30:07.278Z,11.07
2018-05-29T21:32:34.802Z,10.38
2018-05-29T21:35:02.594Z,12.48
2018-05-29T21:37:30.419Z,11.15
2018-05-29T21:39:58.137Z,10.85
2018-05-29T21:42:25.698Z,15.40
2018-05-29T21:44:53.211Z,11.63
2018-05-29T21:47:21.091Z,11.23
2018-05-29T21:49:49.557Z,12.20
2018-05-29T21:52:17.099Z,13.07
2018-05-29T21:54:44.624Z,14.07
2018-05-29T21:57:12.375Z,12.90
2018-05-29T21:59:40.067Z,11.93
2018-05-29T22:02:08.621Z,11.68
2018-05-29T22:04:36.191Z,16.45
2018-05-29T22:07:03.719Z,13.90
2018-05-29T22:09:31.376Z,17.35
2018-05-29T22:11:58.911Z,20.35
2018-05-29T22:14:26.435Z,19.95
2018-05-29T22:16:53.951Z,18.52
2018-05-29T22:19:21.462Z,21.65
2018-05-29T22:21:49.055Z,24.02
2018-05-29T22:24:16.580Z,24.98
2018-05-29T22:26:44.102Z,22.48
2018-05-29T22:29:11.709Z,23.73
2018-05-29T22:31:39.259Z,24.23
2018-05-29T22:34:06.792Z,22.75
2018-05-29T22:36:34.311Z,24.27
2018-05-29T22:39:04.103Z,24.58
2018-05-29T22:41:31.753Z,23.00
2018-05-29T22:43:59.416Z,26.87
2018-05-29T22:46:26.994Z,22.25
2018-05-29T22:48:55.291Z,23.95
2018-05-29T22:51:23.099Z,19.95
2018-05-29T22:53:50.614Z,21.65
2018-05-29T22:56:18.460Z,22.25
2018-05-29T22:58:46.044Z,18.95
2018-05-29T23:01:14.254Z,20.17
2018-05-29T23:03:41.834Z,19.30
2018-05-29T23:06:09.529Z,18.62
2018-05-29T23:08:37.114Z,19.12
2018-05-29T23:11:04.630Z,21.83
2018-05-29T23:13:32.504Z,20.73
2018-05-29T23:16:00.034Z,21.75
2018-05-29T23:18:27.554Z,25.10
2018-05-29T23:20:55.203Z,24.35
2018-05-29T23:23:22.723Z,25.02
2018-05-29T23:25:50.635Z,24.80
2018-05-29T23:28:18.171Z,25.88
2018-05-29T23:30:45.951Z,26.98
2018-05-29T23:33:13.516Z,26.20
2018-05-29T23:35:41.849Z,26.10
2018-05-29T23:38:09.948Z,26.40
2018-05-29T23:40:38.449Z,27.60
2018-05-29T23:43:06.050Z,28.40
2018-05-29T23:45:34.579Z,28.80
2018-05-29T23:48:02.247Z,28.77
2018-05-29T23:50:30.352Z,28.77
2018-05-29T23:52:58.502Z,30.37
2018-05-29T23:55:27.948Z,29.67
2018-05-29T23:57:55.467Z,27.87
